createdAt,value
2018-04-27T00:01:50.909Z,6.00
2018-04-27T00:04:18.419Z,6.50
2018-04-27T00:06:45.891Z,6.87
2018-04-27T00:09:13.470Z,8.80
2018-04-27T00:11:41.002Z,7.30
2018-04-27T00:14:08.589Z,6.60
2018-04-27T00:16:36.084Z,6.60
2018-04-27T00:19:03.587Z,7.03
2018-04-27T00:21:31.132Z,6.83
2018-04-27T00:23:58.618Z,8.03
2018-04-27T00:26:26.146Z,7.27
2018-04-27T00:28:53.721Z,7.60
2018-04-27T00:31:21.306Z,7.80
2018-04-27T00:33:48.801Z,7.67
2018-04-27T00:36:16.297Z,7.20
2018-04-27T00:38:43.883Z,7.10
2018-04-27T00:41:11.360Z,6.47
2018-04-27T00:43:38.831Z,6.30
2018-04-27T00:46:06.351Z,6.57
2018-04-27T00:48:33.829Z,6.63
2018-04-27T00:51:01.375Z,7.47
2018-04-27T00:53:28.876Z,6.20
2018-04-27T00:55:56.386Z,6.83
2018-04-27T00:58:23.895Z,7.40
2018-04-27T01:00:51.508Z,7.30
2018-04-27T01:03:18.993Z,6.50
2018-04-27T01:05:46.508Z,7.30
2018-04-27T01:08:14.017Z,6.83
2018-04-27T01:10:41.490Z,8.13
2018-04-27T01:13:09.002Z,7.73
2018-04-27T01:15:36.508Z,7.00
2018-04-27T01:18:03.984Z,7.43
2018-04-27T01:20:31.457Z,7.07
2018-04-27T01:22:59.001Z,7.67
2018-04-27T01:25:26.472Z,7.33
2018-04-27T01:27:54.075Z,7.53
2018-04-27T01:30:21.583Z,7.83
2018-04-27T01:32:49.097Z,6.53
2018-04-27T01:35:16.588Z,7.60
2018-04-27T01:37:44.126Z,7.00
2018-04-27T01:40:11.621Z,6.67
2018-04-27T01:42:39.101Z,6.47
2018-04-27T01:45:06.588Z,6.70
2018-04-27T01:47:34.062Z,6.10
2018-04-27T01:50:01.575Z,8.63
2018-04-27T01:52:29.054Z,7.60
2018-04-27T01:54:56.561Z,7.10
2018-04-27T01:57:24.115Z,8.30
2018-04-27T01:59:51.703Z,8.00
2018-04-27T02:02:19.176Z,7.10
2018-04-27T02:04:46.693Z,8.07
2018-04-27T02:07:14.283Z,8.20
2018-04-27T02:09:41.797Z,8.80
2018-04-27T02:12:09.349Z,8.33
2018-04-27T02:14:36.826Z,7.37
2018-04-27T02:17:04.307Z,8.57
2018-04-27T02:19:31.783Z,8.80
2018-04-27T02:21:59.256Z,7.40
2018-04-27T02:24:26.765Z,7.40
2018-04-27T02:26:54.339Z,7.90
2018-04-27T02:29:21.871Z,7.70
2018-04-27T02:31:49.356Z,7.77
2018-04-27T02:34:16.831Z,7.93
2018-04-27T02:36:44.344Z,8.33
2018-04-27T02:39:11.818Z,7.20
2018-04-27T02:41:39.270Z,7.70
2018-04-27T02:44:06.849Z,7.67
2018-04-27T02:46:34.376Z,7.70
2018-04-27T02:49:01.854Z,7.83
2018-04-27T02:51:29.329Z,8.33
2018-04-27T02:53:56.788Z,7.93
2018-04-27T02:56:24.235Z,6.97
2018-04-27T02:58:51.968Z,7.50
2018-04-27T03:01:19.454Z,8.20
2018-04-27T03:03:46.948Z,7.40
2018-04-27T03:06:14.416Z,7.80
2018-04-27T03:08:41.855Z,8.10
2018-04-27T03:11:09.329Z,8.47
2018-04-27T03:13:36.786Z,8.30
2018-04-27T03:16:04.257Z,8.03
2018-04-27T03:18:31.759Z,8.50
2018-04-27T03:20:59.238Z,9.33
2018-04-27T03:23:26.679Z,7.57
2018-04-27T03:25:54.135Z,8.13
2018-04-27T03:28:21.575Z,7.53
2018-04-27T03:30:49.051Z,7.50
2018-04-27T03:33:16.496Z,8.70
2018-04-27T03:35:43.977Z,8.47
2018-04-27T03:38:11.455Z,8.87
2018-04-27T03:40:38.952Z,8.63
2018-04-27T03:43:06.405Z,7.83
2018-04-27T03:45:33.855Z,8.50
2018-04-27T03:48:01.328Z,7.40
2018-04-27T03:50:28.787Z,8.87
2018-04-27T03:52:56.303Z,8.50
2018-04-27T03:55:23.759Z,8.67
2018-04-27T03:57:51.278Z,7.63
2018-04-27T04:00:30.598Z,8.90
2018-04-27T04:03:09.784Z,8.30
2018-04-27T04:05:37.253Z,9.20
2018-04-27T04:08:04.703Z,11.10
2018-04-27T04:10:32.157Z,8.57
2018-04-27T04:12:59.596Z,8.43
2018-04-27T04:15:27.051Z,9.63
2018-04-27T04:17:54.512Z,9.63
2018-04-27T04:20:21.994Z,9.47
2018-04-27T04:22:49.509Z,10.07
2018-04-27T04:25:16.995Z,9.40
2018-04-27T04:27:44.514Z,8.80
2018-04-27T04:30:12.009Z,9.30
2018-04-27T04:32:39.513Z,9.40
2018-04-27T04:35:07.051Z,9.87
2018-04-27T04:37:34.555Z,8.80
2018-04-27T04:40:02.040Z,8.73
2018-04-27T04:42:29.493Z,10.53
2018-04-27T04:44:56.979Z,9.30
2018-04-27T04:47:24.556Z,9.27
2018-04-27T04:49:52.015Z,9.10
2018-04-27T04:52:19.461Z,9.00
2018-04-27T04:54:46.973Z,8.70
2018-04-27T04:57:14.419Z,9.17
2018-04-27T04:59:41.886Z,8.37
2018-04-27T05:02:09.409Z,10.50
2018-04-27T05:04:36.896Z,9.30
2018-04-27T05:07:04.391Z,10.57
2018-04-27T05:09:31.883Z,9.13
2018-04-27T05:11:59.437Z,9.47
2018-04-27T05:14:26.999Z,11.00
2018-04-27T05:16:54.482Z,9.43
2018-04-27T05:19:21.984Z,9.40
2018-04-27T05:21:49.563Z,11.17
2018-04-27T05:24:17.067Z,10.53
2018-04-27T05:26:44.569Z,10.27
2018-04-27T05:29:12.115Z,10.60
2018-04-27T05:31:39.605Z,11.63
2018-04-27T05:34:07.136Z,17.13
2018-04-27T05:36:34.645Z,10.20
2018-04-27T05:39:02.147Z,10.90
2018-04-27T05:41:29.600Z,10.63
2018-04-27T05:43:57.121Z,11.43
2018-04-27T05:46:24.601Z,9.93
2018-04-27T05:48:52.056Z,9.63
2018-04-27T05:51:19.519Z,10.13
2018-04-27T05:53:46.997Z,10.03
2018-04-27T05:56:14.581Z,11.03
2018-04-27T05:58:42.140Z,11.57
2018-04-27T06:01:09.598Z,10.63
2018-04-27T06:03:49.024Z,11.30
2018-04-27T06:06:16.471Z,10.93
2018-04-27T06:08:43.946Z,17.13
2018-04-27T06:11:11.489Z,12.13
2018-04-27T06:13:38.935Z,12.10
2018-04-27T06:16:06.556Z,11.13
2018-04-27T06:18:34.056Z,10.93
2018-04-27T06:21:01.560Z,11.53
2018-04-27T06:23:29.129Z,12.07
2018-04-27T06:25:56.624Z,12.33
2018-04-27T06:28:24.112Z,12.00
2018-04-27T06:30:51.601Z,14.50
2018-04-27T06:33:19.098Z,12.37
2018-04-27T06:35:46.570Z,11.70
2018-04-27T06:38:14.016Z,11.00
2018-04-27T06:40:41.620Z,11.23
2018-04-27T06:43:09.136Z,11.97
2018-04-27T06:45:36.637Z,12.70
2018-04-27T06:48:04.160Z,11.50
2018-04-27T06:50:31.611Z,10.93
2018-04-27T06:52:59.183Z,11.83
2018-04-27T06:55:26.627Z,11.73
2018-04-27T06:57:54.077Z,10.67
2018-04-27T07:00:21.653Z,12.27
2018-04-27T07:02:49.110Z,12.53
2018-04-27T07:05:16.633Z,11.50
2018-04-27T07:07:44.160Z,12.37
2018-04-27T07:10:11.709Z,13.33
2018-04-27T07:12:39.174Z,13.07
2018-04-27T07:15:06.691Z,12.13
2018-04-27T07:17:34.140Z,14.87
2018-04-27T07:20:01.594Z,12.33
2018-04-27T07:22:29.084Z,12.27
2018-04-27T07:24:56.587Z,12.27
2018-04-27T07:27:24.088Z,13.37
2018-04-27T07:29:51.556Z,11.20
2018-04-27T07:32:19.108Z,11.30
2018-04-27T07:34:46.600Z,11.33
2018-04-27T07:37:14.110Z,11.70
2018-04-27T07:39:41.697Z,11.83
2018-04-27T07:42:09.144Z,12.07
2018-04-27T07:44:36.724Z,10.43
2018-04-27T07:47:04.216Z,10.07
2018-04-27T07:49:31.671Z,10.63
2018-04-27T07:51:59.197Z,9.80
2018-04-27T07:54:26.647Z,9.67
2018-04-27T07:56:54.161Z,10.37
2018-04-27T07:59:21.628Z,9.97
2018-04-27T08:01:49.071Z,9.30
2018-04-27T08:04:16.567Z,8.27
2018-04-27T08:06:44.140Z,10.07
2018-04-27T08:09:11.629Z,8.43
2018-04-27T08:11:39.181Z,10.17
2018-04-27T08:14:06.639Z,10.70
2018-04-27T08:16:34.084Z,9.80
2018-04-27T08:19:01.556Z,9.30
2018-04-27T08:21:29.042Z,8.37
2018-04-27T08:23:56.531Z,9.17
2018-04-27T08:26:26.716Z,9.90
2018-04-27T08:28:54.172Z,7.07
2018-04-27T08:31:21.673Z,7.07
2018-04-27T08:33:49.162Z,6.63
2018-04-27T08:36:16.737Z,7.63
2018-04-27T08:38:44.165Z,8.20
2018-04-27T08:41:11.650Z,8.23
2018-04-27T08:43:39.091Z,8.60
2018-04-27T08:46:06.537Z,7.47
2018-04-27T08:48:34.028Z,7.80
2018-04-27T08:51:01.475Z,9.30
2018-04-27T08:53:28.928Z,9.60
2018-04-27T08:55:56.416Z,9.37
2018-04-27T08:58:23.905Z,10.07
2018-04-27T09:00:51.493Z,11.53
2018-04-27T09:03:18.954Z,10.77
2018-04-27T09:05:46.443Z,10.33
2018-04-27T09:08:13.921Z,9.30
2018-04-27T09:10:41.371Z,9.87
2018-04-27T09:13:08.825Z,9.20
2018-04-27T09:15:36.457Z,10.77
2018-04-27T09:18:03.961Z,8.60
2018-04-27T09:20:31.485Z,9.30
2018-04-27T09:22:58.967Z,8.10
2018-04-27T09:25:26.560Z,7.57
2018-04-27T09:27:54.081Z,7.20
2018-04-27T09:30:21.555Z,9.13
2018-04-27T09:32:49.005Z,8.90
2018-04-27T09:35:16.557Z,7.80
2018-04-27T09:37:44.011Z,7.60
2018-04-27T09:40:11.504Z,7.10
2018-04-27T09:42:39.014Z,6.97
2018-04-27T09:45:06.473Z,7.40
2018-04-27T09:47:33.953Z,7.47
2018-04-27T09:50:01.457Z,7.90
2018-04-27T09:52:28.912Z,7.90
2018-04-27T09:54:56.426Z,9.00
2018-04-27T09:57:23.898Z,8.50
2018-04-27T09:59:51.403Z,6.80
2018-04-27T10:02:19.206Z,7.90
2018-04-27T10:04:46.684Z,8.83
2018-04-27T10:07:14.180Z,7.00
2018-04-27T10:09:41.648Z,7.70
2018-04-27T10:12:09.154Z,8.60
2018-04-27T10:14:36.607Z,6.77
2018-04-27T10:17:04.093Z,7.97
2018-04-27T10:19:31.651Z,6.77
2018-04-27T10:21:59.129Z,8.93
2018-04-27T10:24:26.581Z,8.13
2018-04-27T10:26:54.027Z,8.80
2018-04-27T10:29:21.500Z,9.30
2018-04-27T10:31:48.995Z,8.40
2018-04-27T10:34:16.554Z,7.90
2018-04-27T10:36:44.008Z,7.07
2018-04-27T10:39:11.482Z,7.57
2018-04-27T10:41:39.072Z,7.97
2018-04-27T10:44:06.575Z,7.23
2018-04-27T10:46:34.033Z,6.00
2018-04-27T10:49:01.545Z,7.97
2018-04-27T10:51:29.075Z,7.07
2018-04-27T10:53:56.583Z,7.70
2018-04-27T10:56:24.082Z,6.93
2018-04-27T10:58:51.552Z,8.53
2018-04-27T11:01:19.064Z,5.90
2018-04-27T11:03:46.537Z,6.57
2018-04-27T11:06:14.016Z,7.77
2018-04-27T11:08:41.509Z,7.90
2018-04-27T11:11:09.006Z,6.30
2018-04-27T11:13:36.494Z,8.20
2018-04-27T11:16:03.947Z,7.60
2018-04-27T11:18:31.406Z,7.07
2018-04-27T11:20:58.897Z,6.93
2018-04-27T11:23:26.428Z,6.67
2018-04-27T11:25:54.036Z,6.40
2018-04-27T11:28:21.534Z,6.10
2018-04-27T11:30:48.983Z,6.33
2018-04-27T11:33:16.555Z,5.97
2018-04-27T11:35:44.143Z,6.43
2018-04-27T11:38:11.626Z,5.47
2018-04-27T11:40:39.115Z,5.30
2018-04-27T11:43:06.613Z,6.17
2018-04-27T11:45:34.063Z,5.73
2018-04-27T11:48:01.585Z,5.10
2018-04-27T11:50:29.073Z,5.73
2018-04-27T11:52:56.559Z,5.50
2018-04-27T11:55:24.079Z,5.60
2018-04-27T11:57:51.565Z,5.17
2018-04-27T12:00:21.599Z,5.53
2018-04-27T12:02:49.123Z,11.67
2018-04-27T12:05:16.604Z,6.23
2018-04-27T12:07:44.070Z,7.27
2018-04-27T12:10:11.556Z,6.40
2018-04-27T12:12:39.037Z,6.33
2018-04-27T12:15:06.498Z,6.20
2018-04-27T12:17:33.996Z,6.17
2018-04-27T12:20:01.420Z,5.57
2018-04-27T12:22:28.891Z,5.50
2018-04-27T12:24:56.331Z,5.20
2018-04-27T12:27:23.812Z,5.57
2018-04-27T12:29:51.284Z,4.93
2018-04-27T12:32:18.777Z,5.70
2018-04-27T12:34:46.297Z,8.03
2018-04-27T12:37:13.742Z,5.13
2018-04-27T12:39:41.188Z,6.03
2018-04-27T12:42:08.718Z,5.47
2018-04-27T12:44:36.243Z,4.87
2018-04-27T12:47:03.685Z,5.27
2018-04-27T12:49:31.196Z,5.67
2018-04-27T12:51:58.691Z,6.40
2018-04-27T12:54:26.177Z,4.30
2018-04-27T12:56:53.649Z,7.90
2018-04-27T12:59:21.140Z,7.10
2018-04-27T13:01:48.721Z,5.73
2018-04-27T13:04:16.252Z,5.30
2018-04-27T13:06:43.696Z,4.60
2018-04-27T13:09:11.199Z,6.13
2018-04-27T13:11:38.683Z,5.90
2018-04-27T13:14:06.131Z,4.17
2018-04-27T13:16:33.683Z,3.97
2018-04-27T13:19:01.173Z,4.60
2018-04-27T13:21:28.707Z,4.83
2018-04-27T13:23:56.215Z,4.50
2018-04-27T13:26:23.742Z,4.47
2018-04-27T13:28:51.159Z,3.90
2018-04-27T13:31:18.631Z,4.40
2018-04-27T13:33:46.080Z,4.30
2018-04-27T13:36:13.566Z,3.90
2018-04-27T13:38:41.078Z,6.13
2018-04-27T13:41:08.561Z,3.60
2018-04-27T13:43:36.011Z,3.50
2018-04-27T13:46:03.552Z,4.40
2018-04-27T13:48:31.006Z,3.10
2018-04-27T13:50:58.475Z,3.27
2018-04-27T13:53:25.997Z,4.53
2018-04-27T13:55:53.451Z,4.53
2018-04-27T13:58:20.929Z,4.30
2018-04-27T14:00:48.388Z,3.70
2018-04-27T14:03:15.852Z,6.77
2018-04-27T14:05:43.308Z,4.27
2018-04-27T14:08:10.749Z,4.27
2018-04-27T14:10:38.262Z,3.80
2018-04-27T14:13:05.833Z,7.43
2018-04-27T14:15:33.370Z,5.00
2018-04-27T14:18:00.861Z,4.70
2018-04-27T14:20:28.308Z,4.07
2018-04-27T14:22:55.841Z,4.43
2018-04-27T14:25:23.368Z,4.00
2018-04-27T14:27:50.841Z,5.70
2018-04-27T14:30:18.325Z,4.27
2018-04-27T14:32:45.802Z,4.20
2018-04-27T14:35:13.361Z,4.03
2018-04-27T14:37:40.914Z,4.00
2018-04-27T14:40:08.447Z,3.10
2018-04-27T14:42:35.925Z,3.73
2018-04-27T14:45:03.397Z,4.63
2018-04-27T14:47:30.851Z,4.50
2018-04-27T14:49:58.302Z,3.63
2018-04-27T14:52:25.805Z,4.27
2018-04-27T14:54:53.264Z,4.90
2018-04-27T14:57:20.731Z,4.70
2018-04-27T14:59:48.308Z,5.10
2018-04-27T15:02:15.789Z,4.70
2018-04-27T15:04:43.246Z,3.73
2018-04-27T15:07:10.716Z,4.47
2018-04-27T15:09:38.224Z,4.70
2018-04-27T15:12:05.807Z,3.60
2018-04-27T15:14:33.262Z,3.90
2018-04-27T15:17:00.723Z,4.70
2018-04-27T15:19:28.164Z,4.50
2018-04-27T15:21:55.652Z,3.23
2018-04-27T15:24:23.156Z,6.37
2018-04-27T15:26:50.665Z,4.10
2018-04-27T15:29:18.147Z,4.10
2018-04-27T15:31:45.630Z,3.83
2018-04-27T15:34:13.121Z,3.10
2018-04-27T15:36:40.587Z,3.43
2018-04-27T15:39:08.028Z,3.47
2018-04-27T15:41:35.563Z,2.80
2018-04-27T15:44:03.123Z,3.80
2018-04-27T15:46:30.590Z,3.60
2018-04-27T15:48:58.070Z,5.60
2018-04-27T15:51:25.559Z,5.13
2018-04-27T15:53:53.057Z,5.13
2018-04-27T15:56:20.537Z,3.10
2018-04-27T15:58:48.007Z,2.90
2018-04-27T16:01:15.496Z,4.87
2018-04-27T16:03:43.803Z,5.27
2018-04-27T16:06:11.264Z,4.30
2018-04-27T16:08:38.732Z,4.60
2018-04-27T16:11:06.260Z,4.23
2018-04-27T16:13:51.514Z,4.40
2018-04-27T16:16:19.631Z,3.50
2018-04-27T16:18:47.115Z,5.50
2018-04-27T16:21:14.578Z,4.40
2018-04-27T16:23:42.964Z,4.30
2018-04-27T16:26:10.465Z,2.70
2018-04-27T16:28:37.952Z,3.07
2018-04-27T16:31:05.420Z,3.40
2018-04-27T16:33:32.867Z,3.43
2018-04-27T16:36:00.446Z,4.50
2018-04-27T16:38:27.935Z,4.20
2018-04-27T16:40:55.487Z,5.17
2018-04-27T16:43:22.953Z,2.70
2018-04-27T16:45:50.401Z,3.63
2018-04-27T16:48:17.847Z,2.70
2018-04-27T16:50:45.344Z,3.60
2018-04-27T16:53:12.830Z,7.47
2018-04-27T16:55:40.363Z,4.40
2018-04-27T16:58:07.852Z,3.37
2018-04-27T17:00:35.311Z,3.97
2018-04-27T17:03:02.800Z,3.33
2018-04-27T17:05:30.458Z,4.40
2018-04-27T17:07:57.934Z,4.10
2018-04-27T17:10:25.441Z,6.60
2018-04-27T17:12:52.903Z,2.80
2018-04-27T17:15:20.390Z,5.97
2018-04-27T17:17:48.046Z,7.40
2018-04-27T17:20:15.535Z,5.43
2018-04-27T17:22:43.038Z,3.33
2018-04-27T17:25:10.579Z,3.40
2018-04-27T17:27:38.053Z,3.53
2018-04-27T17:30:05.574Z,2.53
2018-04-27T17:32:33.089Z,3.73
2018-04-27T17:35:00.579Z,3.30
2018-04-27T17:37:28.096Z,2.90
2018-04-27T17:39:55.605Z,2.47
2018-04-27T17:42:23.091Z,2.90
2018-04-27T17:44:50.547Z,3.23
2018-04-27T17:47:18.029Z,4.03
2018-04-27T17:49:45.507Z,3.13
2018-04-27T17:52:12.985Z,3.43
2018-04-27T17:54:40.512Z,3.57
2018-04-27T17:57:07.963Z,4.30
2018-04-27T17:59:35.444Z,7.30
2018-04-27T18:02:02.937Z,3.87
2018-04-27T18:04:30.382Z,5.10
2018-04-27T18:06:57.896Z,4.90
2018-04-27T18:09:25.406Z,5.40
2018-04-27T18:11:52.939Z,8.00
2018-04-27T18:14:20.416Z,7.80
2018-04-27T18:16:47.988Z,7.20
2018-04-27T18:19:15.450Z,8.50
2018-04-27T18:21:42.892Z,6.13
2018-04-27T18:24:10.485Z,7.67
2018-04-27T18:26:38.032Z,5.10
2018-04-27T18:29:05.504Z,5.50
2018-04-27T18:31:32.993Z,3.50
2018-04-27T18:34:00.453Z,5.63
2018-04-27T18:36:27.959Z,5.40
2018-04-27T18:38:55.437Z,4.70
2018-04-27T18:41:22.887Z,5.17
2018-04-27T18:43:50.359Z,4.80
2018-04-27T18:46:18.203Z,6.23
2018-04-27T18:48:45.694Z,5.87
2018-04-27T18:51:13.882Z,5.03
2018-04-27T18:53:41.448Z,4.53
2018-04-27T18:56:08.892Z,5.33
2018-04-27T18:58:36.391Z,5.53
2018-04-27T19:01:03.872Z,5.57
2018-04-27T19:03:31.341Z,6.70
2018-04-27T19:05:58.819Z,5.47
2018-04-27T19:08:26.268Z,5.87
2018-04-27T19:10:53.776Z,5.83
2018-04-27T19:13:21.254Z,4.13
2018-04-27T19:15:48.704Z,6.27
2018-04-27T19:18:18.847Z,6.03
2018-04-27T19:20:46.666Z,5.97
2018-04-27T19:23:16.772Z,5.70
2018-04-27T19:25:47.748Z,5.10
2018-04-27T19:28:15.272Z,5.57
2018-04-27T19:30:42.783Z,6.30
2018-04-27T19:33:10.978Z,6.90
2018-04-27T19:35:38.464Z,6.20
2018-04-27T19:38:06.016Z,7.07
2018-04-27T19:40:34.250Z,5.83
2018-04-27T19:43:01.853Z,10.37
2018-04-27T19:45:29.400Z,9.60
2018-04-27T19:47:56.888Z,6.60
2018-04-27T19:50:24.406Z,6.17
2018-04-27T19:52:51.941Z,7.10
2018-04-27T19:55:19.432Z,9.27
2018-04-27T19:57:46.941Z,24.40
2018-04-27T20:00:14.441Z,14.73
2018-04-27T20:02:41.974Z,9.30
2018-04-27T20:05:12.857Z,8.30
2018-04-27T20:07:40.362Z,11.23
2018-04-27T20:10:12.608Z,18.50
2018-04-27T20:12:40.098Z,12.63
2018-04-27T20:15:07.551Z,15.00
2018-04-27T20:17:37.861Z,11.60
2018-04-27T20:20:06.937Z,9.03
2018-04-27T20:22:35.235Z,14.20
2018-04-27T20:25:04.558Z,11.80
2018-04-27T20:27:35.495Z,17.67
2018-04-27T20:30:12.813Z,18.07
2018-04-27T20:32:40.262Z,12.47
2018-04-27T20:35:15.335Z,11.37
2018-04-27T20:37:42.855Z,10.00
2018-04-27T20:40:15.820Z,7.90
2018-04-27T20:42:43.279Z,10.00
2018-04-27T20:45:10.839Z,11.53
2018-04-27T20:47:38.356Z,14.80
2018-04-27T20:50:05.944Z,11.80
2018-04-27T20:52:38.988Z,17.10
2018-04-27T20:55:07.974Z,13.63
2018-04-27T20:57:35.501Z,11.30
2018-04-27T21:00:03.060Z,10.53
2018-04-27T21:02:30.479Z,10.37
2018-04-27T21:04:58.016Z,18.20
2018-04-27T21:07:25.477Z,20.20
2018-04-27T21:09:52.977Z,9.27
2018-04-27T21:12:20.590Z,13.00
2018-04-27T21:14:48.099Z,14.93
2018-04-27T21:17:15.564Z,12.40
2018-04-27T21:19:43.033Z,8.50
2018-04-27T21:22:11.430Z,11.50
2018-04-27T21:24:38.928Z,8.70
2018-04-27T21:27:06.504Z,13.30
2018-04-27T21:29:36.553Z,8.90
2018-04-27T21:32:04.013Z,9.27
2018-04-27T21:34:31.522Z,10.50
2018-04-27T21:36:58.999Z,11.07
2018-04-27T21:39:36.296Z,11.90
2018-04-27T21:42:05.549Z,16.57
2018-04-27T21:44:47.941Z,17.20
2018-04-27T21:47:34.960Z,14.40
2018-04-27T21:50:03.188Z,11.33
2018-04-27T21:52:32.636Z,7.70
2018-04-27T21:55:00.141Z,13.60
2018-04-27T21:57:29.250Z,9.70
2018-04-27T22:00:05.345Z,9.37
2018-04-27T22:02:34.297Z,19.40
2018-04-27T22:08:21.223Z,7.90
2018-04-27T22:10:49.527Z,9.03
2018-04-27T22:13:19.520Z,18.50
2018-04-27T22:15:47.108Z,13.77
2018-04-27T22:18:14.668Z,11.33
2018-04-27T22:20:48.013Z,8.77
2018-04-27T22:23:15.505Z,8.57
2018-04-27T22:25:46.610Z,7.80
2018-04-27T22:28:15.024Z,9.50
2018-04-27T22:30:57.448Z,10.00
2018-04-27T22:33:24.983Z,7.60
2018-04-27T22:35:55.091Z,8.40
2018-04-27T22:41:34.503Z,16.40
2018-04-27T22:44:01.998Z,9.33
2018-04-27T22:46:29.575Z,8.87
2018-04-27T22:48:59.645Z,9.17
2018-04-27T22:51:42.952Z,9.93
2018-04-27T22:57:18.071Z,8.23
2018-04-27T22:59:45.511Z,7.70
2018-04-27T23:02:14.945Z,18.50
2018-04-27T23:04:42.532Z,16.37
2018-04-27T23:10:11.959Z,11.53
2018-04-27T23:12:42.837Z,9.87
2018-04-27T23:15:10.292Z,8.47
2018-04-27T23:17:37.906Z,10.50
2018-04-27T23:20:25.904Z,22.70
2018-04-27T23:22:56.908Z,10.17
2018-04-27T23:25:24.365Z,11.10
2018-04-27T23:27:51.817Z,11.63
2018-04-27T23:30:19.300Z,9.33
2018-04-27T23:32:46.752Z,9.43
2018-04-27T23:35:14.196Z,8.27
2018-04-27T23:37:41.699Z,8.80
2018-04-27T23:40:09.313Z,9.20
2018-04-27T23:42:36.774Z,13.97
2018-04-27T23:45:04.235Z,13.37
2018-04-27T23:47:31.781Z,8.10
2018-04-27T23:49:59.256Z,9.10
2018-04-27T23:52:26.737Z,8.57
2018-04-27T23:54:54.254Z,7.77
2018-04-27T23:57:23.135Z,7.97
2018-04-27T23:59:53.085Z,8.53
